Time;durP1;ratioP1;P1;durP2;ratioP2;P2;SDS_P1;SDS_P2;PMS_P1;PMS_P2;Temp;Humidity;BMP_temperature;BMP_pressure;BME280_temperature;BME280_humidity;BME280_pressure;Samples;Min_cycle;Max_cycle;Signal;HPM_P1;HPM_P2
2021/06/14 00:00:12;;;;;;;17.07;9.13;;;;;;;18.55;75.07;100302.72;1703784;84;20933;-71
2021/06/14 00:02:40;;;;;;;22.10;10.82;;;;;;;18.54;75.42;100302.39;1703926;84;21148;-70
2021/06/14 00:05:11;;;;;;;16.25;9.03;;;;;;;18.57;75.27;100301.25;1703652;84;20984;-70
2021/06/14 00:07:39;;;;;;;20.23;9.85;;;;;;;18.58;75.17;100298.92;1703781;84;20952;-70
2021/06/14 00:10:09;;;;;;;17.62;9.28;;;;;;;18.59;75.29;100300.11;1703819;84;20893;-71
2021/06/14 00:12:35;;;;;;;17.57;9.98;;;;;;;18.59;75.54;100301.44;1703948;84;20901;-71
2021/06/14 00:15:06;;;;;;;19.80;10.23;;;;;;;18.59;75.48;100299.28;1703678;84;21158;-72
2021/06/14 00:17:33;;;;;;;16.35;10.28;;;;;;;18.59;75.72;100299.28;1702327;84;20889;-70
2021/06/14 00:19:59;;;;;;;13.53;7.45;;;;;;;18.59;75.90;100291.31;1700590;84;20930;-67
2021/06/14 00:22:26;;;;;;;12.05;6.53;;;;;;;18.59;75.78;100289.98;1708753;84;20976;-69
2021/06/14 00:24:54;;;;;;;12.73;7.97;;;;;;;18.58;75.63;100285.64;1708515;84;20936;-69
2021/06/14 00:27:20;;;;;;;13.68;7.62;;;;;;;18.58;75.84;100290.95;1708571;83;21131;-68
2021/06/14 00:29:47;;;;;;;12.53;7.05;;;;;;;18.55;75.87;100289.95;1708677;84;20933;-68
2021/06/14 00:32:14;;;;;;;14.13;7.67;;;;;;;18.54;76.10;100280.29;1708564;83;20941;-68
2021/06/14 00:34:41;;;;;;;13.22;6.80;;;;;;;18.55;76.15;100286.79;1708420;83;21534;-68
2021/06/14 00:37:08;;;;;;;9.43;6.80;;;;;;;18.53;76.14;100287.43;1708468;84;20992;-68
2021/06/14 00:39:36;;;;;;;9.10;6.37;;;;;;;18.52;76.14;100283.59;1708562;84;21413;-68
2021/06/14 00:42:04;;;;;;;11.53;5.78;;;;;;;18.53;76.20;100283.95;1708362;84;20933;-69
2021/06/14 00:44:32;;;;;;;12.65;6.15;;;;;;;18.51;76.20;100281.44;1708589;84;20936;-69
2021/06/14 00:46:59;;;;;;;9.43;6.47;;;;;;;18.55;76.11;100288.11;1708477;84;21644;-69
2021/06/14 00:49:26;;;;;;;11.25;6.33;;;;;;;18.57;76.26;100289.30;1708724;84;20861;-69
2021/06/14 00:51:53;;;;;;;9.00;5.83;;;;;;;18.57;76.29;100283.48;1708569;83;21137;-67
2021/06/14 00:54:20;;;;;;;8.88;5.75;;;;;;;18.55;76.37;100287.29;1708646;83;20980;-67
2021/06/14 00:56:47;;;;;;;7.70;5.37;;;;;;;18.54;76.46;100289.12;1708483;83;20905;-68
2021/06/14 00:59:14;;;;;;;9.43;5.83;;;;;;;18.55;76.43;100289.95;1708813;84;20925;-67
2021/06/14 01:01:44;;;;;;;10.45;5.72;;;;;;;18.54;76.44;100292.24;1708498;84;20945;-68
2021/06/14 01:04:11;;;;;;;11.73;6.35;;;;;;;18.53;76.53;100291.41;1708799;84;21233;-69
2021/06/14 01:06:38;;;;;;;10.68;5.87;;;;;;;18.53;76.52;100295.90;1708403;83;20928;-69
2021/06/14 01:09:05;;;;;;;6.83;5.60;;;;;;;18.53;76.56;100307.34;1708809;84;21383;-68
2021/06/14 01:11:54;;;;;;;11.70;6.22;;;;;;;18.52;76.66;100303.03;1708402;83;21411;-68
2021/06/14 01:14:52;;;;;;;10.50;6.53;;;;;;;18.52;76.72;100300.38;1708407;83;20953;-68
2021/06/14 01:17:55;;;;;;;8.55;5.53;;;;;;;18.53;76.79;100306.52;1680406;84;21163;-67
2021/06/14 01:20:38;;;;;;;8.75;6.22;;;;;;;18.53;76.85;100310.00;1696220;84;21306;-68
2021/06/14 01:23:19;;;;;;;12.75;6.60;;;;;;;18.52;76.96;100314.13;1749881;82;20974;-69
2021/06/14 01:26:03;;;;;;;13.13;7.95;;;;;;;18.51;76.98;100319.11;1749864;82;20958;-69
2021/06/14 01:28:32;;;;;;;10.33;7.43;;;;;;;18.48;77.01;100316.77;1750137;82;21586;-69
2021/06/14 01:30:59;;;;;;;14.13;7.05;;;;;;;18.44;77.10;100323.69;1749869;80;21603;-68
2021/06/14 01:33:29;;;;;;;13.48;6.97;;;;;;;18.43;77.14;100323.83;1745268;82;21430;-69
2021/06/14 01:36:04;;;;;;;10.35;6.62;;;;;;;18.42;77.22;100330.97;1750070;82;21548;-69
2021/06/14 01:38:33;;;;;;;12.50;7.40;;;;;;;18.42;77.29;100335.45;1749639;80;20904;-69
2021/06/14 01:41:03;;;;;;;13.80;6.58;;;;;;;18.39;77.35;100335.27;1749814;82;20935;-70
2021/06/14 01:43:34;;;;;;;11.95;6.60;;;;;;;18.36;77.40;100333.39;1749773;82;21136;-69
2021/06/14 01:46:12;;;;;;;10.58;6.40;;;;;;;18.33;77.50;100348.30;1750010;82;20931;-68
2021/06/14 01:48:41;;;;;;;11.48;6.55;;;;;;;18.27;77.92;100348.39;1749802;80;20875;-68
2021/06/14 01:51:10;;;;;;;14.43;7.97;;;;;;;18.21;78.20;100347.18;1750053;82;21374;-67
2021/06/14 01:53:37;;;;;;;16.85;8.85;;;;;;;18.17;78.44;100361.72;1749897;82;20899;-68
2021/06/14 01:56:07;;;;;;;13.45;8.70;;;;;;;18.14;78.62;100358.52;1749770;82;20996;-68
2021/06/14 01:58:35;;;;;;;16.05;9.80;;;;;;;18.09;78.99;100356.31;1749820;82;20942;-68
2021/06/14 02:01:05;;;;;;;16.25;9.93;;;;;;;18.07;79.05;100362.75;1748826;82;21424;-68
2021/06/14 02:03:33;;;;;;;20.05;10.50;;;;;;;18.04;79.31;100366.53;1749623;80;20952;-69
2021/06/14 02:06:08;;;;;;;17.85;9.80;;;;;;;18.01;79.53;100361.53;1713606;82;20903;-68
2021/06/14 02:08:35;;;;;;;16.73;10.15;;;;;;;17.99;79.68;100368.80;1750217;82;21121;-67
2021/06/14 02:11:02;;;;;;;17.80;9.78;;;;;;;17.98;79.84;100369.27;1749948;82;20947;-67
2021/06/14 02:13:29;;;;;;;21.15;11.53;;;;;;;17.96;79.89;100375.24;1749880;82;20880;-68
2021/06/14 02:15:57;;;;;;;17.05;9.60;;;;;;;17.96;80.00;100385.86;1750161;82;20896;-68
2021/06/14 02:18:24;;;;;;;18.15;9.73;;;;;;;17.96;80.09;100389.84;1747000;81;20877;-69
2021/06/14 02:20:53;;;;;;;19.75;10.35;;;;;;;17.98;80.19;100389.67;1709032;83;21098;-68
2021/06/14 02:23:21;;;;;;;20.30;11.05;;;;;;;17.99;80.28;100391.36;1744599;81;20893;-67
2021/06/14 02:25:48;;;;;;;16.82;10.35;;;;;;;17.99;80.42;100385.55;1738527;81;20945;-68
2021/06/14 02:28:16;;;;;;;14.55;9.30;;;;;;;18.04;80.49;100386.94;1744545;82;20893;-68
2021/06/14 02:30:43;;;;;;;20.43;10.05;;;;;;;18.07;80.43;100384.80;1744645;81;20908;-68
2021/06/14 02:33:12;;;;;;;20.08;11.12;;;;;;;18.11;80.48;100385.36;1744856;82;21205;-68
2021/06/14 02:35:40;;;;;;;16.30;9.75;;;;;;;18.15;80.59;100388.07;1743857;81;20968;-67
2021/06/14 02:38:07;;;;;;;15.35;9.05;;;;;;;18.18;80.55;100388.59;1744978;82;20913;-67
2021/06/14 02:40:35;;;;;;;20.20;9.85;;;;;;;18.20;80.59;100385.30;1744661;82;20905;-68
2021/06/14 02:43:06;;;;;;;17.42;10.25;;;;;;;18.24;80.59;100391.17;1744861;81;21435;-68
2021/06/14 02:45:33;;;;;;;18.07;9.48;;;;;;;18.27;80.59;100389.53;1744609;80;21082;-68
2021/06/14 02:48:04;;;;;;;14.10;9.55;;;;;;;18.29;80.53;100387.56;1708961;83;20945;-69
2021/06/14 02:50:34;;;;;;;16.85;10.28;;;;;;;18.33;80.56;100389.45;1708827;84;21358;-68
2021/06/14 02:53:05;;;;;;;16.02;9.40;;;;;;;18.36;80.69;100391.33;1744847;82;21457;-68
2021/06/14 02:55:35;;;;;;;16.05;9.33;;;;;;;18.40;80.67;100389.19;1708908;82;20916;-69
2021/06/14 02:58:03;;;;;;;18.52;9.75;;;;;;;18.41;80.71;100390.38;1738267;82;21798;-69
2021/06/14 03:00:32;;;;;;;17.30;11.05;;;;;;;18.42;80.69;100386.73;1744540;81;20928;-68
2021/06/14 03:03:05;;;;;;;17.77;10.13;;;;;;;18.46;80.67;100390.44;1744636;81;20929;-68
2021/06/14 03:05:33;;;;;;;15.70;9.98;;;;;;;18.51;80.67;100390.31;1744591;82;20917;-68
2021/06/14 03:08:00;;;;;;;18.87;11.40;;;;;;;18.55;80.61;100390.86;1687746;84;21387;-69
2021/06/14 03:10:30;;;;;;;24.02;12.85;;;;;;;18.59;80.66;100393.06;1744554;82;21632;-69
2021/06/14 03:12:58;;;;;;;28.40;15.68;;;;;;;18.66;80.65;100391.15;1744736;81;21359;-68
2021/06/14 03:15:26;;;;;;;30.08;17.00;;;;;;;18.72;80.57;100398.02;1744609;80;20885;-67
2021/06/14 03:17:53;;;;;;;30.72;20.02;;;;;;;18.78;80.62;100391.28;1760480;81;20943;-68
2021/06/14 03:20:22;;;;;;;31.42;19.37;;;;;;;18.84;80.67;100390.69;1752641;82;20924;-67
2021/06/14 03:22:50;;;;;;;33.02;18.30;;;;;;;18.89;80.63;100398.20;1735567;82;21812;-68
2021/06/14 03:25:17;;;;;;;36.90;20.45;;;;;;;18.94;80.55;100392.80;1752445;82;20892;-68
2021/06/14 03:27:44;;;;;;;24.92;16.45;;;;;;;19.00;80.57;100390.83;1733960;82;20876;-67
2021/06/14 03:30:13;;;;;;;37.60;20.50;;;;;;;19.09;80.66;100386.92;1752450;82;20936;-68
2021/06/14 03:32:43;;;;;;;29.60;17.05;;;;;;;19.16;80.31;100391.96;1752659;82;20940;-67
2021/06/14 03:35:16;;;;;;;28.98;17.30;;;;;;;19.23;80.15;100391.21;1752868;82;21836;-67
2021/06/14 03:37:43;;;;;;;30.37;16.82;;;;;;;19.31;80.03;100388.27;1752543;82;20964;-67
2021/06/14 03:40:12;;;;;;;30.00;17.00;;;;;;;19.36;79.84;100391.29;1752959;82;20975;-68
2021/06/14 03:42:39;;;;;;;32.63;18.25;;;;;;;19.41;79.86;100393.02;1752437;82;20975;-68
2021/06/14 03:45:07;;;;;;;32.83;18.80;;;;;;;19.46;79.89;100394.70;1752867;82;20944;-68
2021/06/14 03:47:34;;;;;;;33.80;18.37;;;;;;;19.53;79.84;100393.59;1752498;82;21145;-68
2021/06/14 03:50:01;;;;;;;37.35;19.82;;;;;;;19.62;79.92;100396.64;1752495;80;20971;-68
2021/06/14 03:52:28;;;;;;;40.78;20.85;;;;;;;19.73;79.65;100400.89;1752487;80;21445;-68
2021/06/14 03:54:55;;;;;;;35.45;19.37;;;;;;;19.83;79.41;100403.80;1752557;82;20873;-67
2021/06/14 03:57:22;;;;;;;36.40;19.60;;;;;;;19.94;79.12;100393.34;1752569;80;20979;-68
2021/06/14 03:59:49;;;;;;;31.60;19.57;;;;;;;20.08;78.73;100398.09;1752778;82;21115;-68
2021/06/14 04:02:16;;;;;;;30.85;18.57;;;;;;;20.24;78.40;100398.66;1752530;82;21358;-67
2021/06/14 04:04:48;;;;;;;36.00;19.23;;;;;;;20.44;77.71;100395.73;1752465;82;20961;-68
2021/06/14 04:07:14;;;;;;;30.20;17.85;;;;;;;20.70;76.96;100387.69;1751646;81;21358;-68
2021/06/14 04:09:42;;;;;;;35.52;19.27;;;;;;;21.07;76.18;100387.70;1752904;82;20971;-69
2021/06/14 04:12:10;;;;;;;31.97;18.98;;;;;;;21.53;75.04;100388.88;1752438;82;21756;-68
2021/06/14 04:14:38;;;;;;;30.62;17.32;;;;;;;22.08;73.72;100392.59;1752430;82;20880;-67
2021/06/14 04:17:06;;;;;;;28.60;18.05;;;;;;;22.63;72.08;100390.00;1752449;82;20885;-68
2021/06/14 04:19:33;;;;;;;26.30;15.60;;;;;;;23.20;70.29;100390.97;1756510;80;20920;-68
2021/06/14 04:22:00;;;;;;;19.17;12.58;;;;;;;23.77;68.61;100388.29;1757844;81;20948;-67
2021/06/14 04:24:27;;;;;;;18.90;11.83;;;;;;;24.27;66.64;100388.53;1758228;81;21054;-67
2021/06/14 04:26:54;;;;;;;18.87;11.03;;;;;;;24.72;65.09;100383.42;1757842;80;20881;-67
2021/06/14 04:29:21;;;;;;;15.98;10.13;;;;;;;25.15;63.39;100386.09;1758170;81;21448;-68
2021/06/14 04:31:48;;;;;;;16.50;9.83;;;;;;;25.56;62.21;100389.41;1757884;81;20932;-67
2021/06/14 04:34:15;;;;;;;17.10;10.40;;;;;;;25.93;60.78;100387.94;1757822;81;20896;-68
2021/06/14 04:36:41;;;;;;;22.02;13.20;;;;;;;26.28;59.92;100392.76;1758152;80;21753;-69
2021/06/14 04:39:09;;;;;;;18.92;12.28;;;;;;;26.61;57.61;100393.39;1757997;81;21084;-68
2021/06/14 04:41:36;;;;;;;14.23;10.95;;;;;;;26.85;56.68;100384.75;1757780;81;21382;-68
2021/06/14 04:44:03;;;;;;;16.05;9.95;;;;;;;27.09;55.56;100391.92;1758030;81;20905;-70
2021/06/14 04:46:30;;;;;;;12.58;10.00;;;;;;;27.31;54.30;100390.42;1757904;81;20968;-67
2021/06/14 04:48:57;;;;;;;12.28;7.95;;;;;;;27.51;53.75;100396.61;1757846;80;21123;-68
2021/06/14 04:51:23;;;;;;;11.93;8.00;;;;;;;27.74;53.13;100403.41;1758116;81;20864;-68
2021/06/14 04:53:51;;;;;;;9.33;7.65;;;;;;;27.98;52.51;100404.11;1757933;80;20916;-68
2021/06/14 04:56:18;;;;;;;15.03;8.13;;;;;;;28.25;51.85;100403.49;1758029;81;21452;-67
2021/06/14 04:58:45;;;;;;;7.58;6.05;;;;;;;28.50;50.93;100403.64;1757786;81;20896;-68
2021/06/14 05:01:12;;;;;;;8.25;6.20;;;;;;;28.74;50.01;100403.90;1757890;81;21094;-68
2021/06/14 05:03:39;;;;;;;14.47;7.28;;;;;;;28.96;49.33;100401.69;1757678;81;20967;-68
2021/06/14 05:06:06;;;;;;;11.40;6.28;;;;;;;29.18;49.07;100400.00;1757750;81;20940;-68
2021/06/14 05:08:34;;;;;;;10.08;6.55;;;;;;;29.35;47.54;100399.76;1758100;80;20980;-68
2021/06/14 05:11:01;;;;;;;11.22;5.72;;;;;;;29.46;47.60;100399.53;1757762;81;21504;-69
2021/06/14 05:13:27;;;;;;;7.03;4.72;;;;;;;29.63;47.41;100400.62;1758098;80;21120;-69
2021/06/14 05:15:54;;;;;;;7.60;4.30;;;;;;;29.81;46.06;100407.95;1757969;80;20916;-68
2021/06/14 05:18:21;;;;;;;4.20;3.77;;;;;;;29.86;45.38;100408.12;1757700;81;21627;-69
2021/06/14 05:20:48;;;;;;;5.72;3.33;;;;;;;29.83;45.10;100413.14;1757835;80;20881;-66
2021/06/14 05:23:15;;;;;;;5.62;3.08;;;;;;;29.71;44.54;100417.13;1757954;81;21378;-68
2021/06/14 05:25:42;;;;;;;5.25;3.37;;;;;;;29.60;44.45;100413.24;1757750;81;21274;-67
2021/06/14 05:28:08;;;;;;;7.95;3.52;;;;;;;29.62;44.56;100420.60;1757787;81;20833;-68
2021/06/14 05:30:35;;;;;;;4.00;2.27;;;;;;;29.74;44.45;100426.13;1757776;81;20848;-68
2021/06/14 05:33:03;;;;;;;4.35;2.62;;;;;;;29.92;44.92;100430.19;1757737;81;20897;-68
2021/06/14 05:35:30;;;;;;;4.03;2.22;;;;;;;30.14;43.65;100427.87;1757889;81;20975;-69
2021/06/14 05:37:57;;;;;;;5.92;1.72;;;;;;;30.32;43.35;100435.17;1757755;81;21532;-69
2021/06/14 05:40:23;;;;;;;3.55;1.77;;;;;;;30.45;41.96;100433.37;1757871;81;20857;-68
2021/06/14 05:42:50;;;;;;;2.30;1.60;;;;;;;30.51;42.60;100430.58;1758553;81;20921;-68
2021/06/14 05:45:17;;;;;;;5.50;1.82;;;;;;;30.72;41.39;100441.95;1758269;80;21310;-69
2021/06/14 05:47:45;;;;;;;3.30;1.65;;;;;;;30.84;40.63;100441.98;1758305;81;20869;-68
2021/06/14 05:50:12;;;;;;;2.37;1.67;;;;;;;30.87;39.94;100444.28;1759344;80;21123;-72
2021/06/14 05:52:39;;;;;;;3.00;1.62;;;;;;;30.80;40.06;100442.17;1759838;81;21015;-74
2021/06/14 05:55:07;;;;;;;2.02;1.62;;;;;;;30.79;41.04;100439.97;1758059;81;20869;-77
2021/06/14 05:57:34;;;;;;;1.60;1.50;;;;;;;30.94;40.40;100443.66;1758322;81;20916;-77
2021/06/14 06:00:01;;;;;;;1.55;1.45;;;;;;;31.04;39.63;100443.93;1757977;81;20971;-77
2021/06/14 06:02:28;;;;;;;2.55;1.65;;;;;;;31.08;40.84;100448.34;1758387;81;21019;-76
2021/06/14 06:04:55;;;;;;;2.95;2.00;;;;;;;31.24;40.18;100451.75;1757985;81;20908;-77
2021/06/14 06:07:22;;;;;;;4.87;2.00;;;;;;;31.39;39.29;100453.48;1758264;81;20979;-77
2021/06/14 06:09:49;;;;;;;2.52;1.75;;;;;;;31.44;38.31;100440.61;1757591;80;20932;-77
2021/06/14 06:12:16;;;;;;;1.45;1.25;;;;;;;31.45;36.87;100441.42;1758722;81;20872;-79
2021/06/14 06:14:43;;;;;;;2.25;1.50;;;;;;;31.49;37.43;100435.30;1757934;81;21662;-77
2021/06/14 06:17:11;;;;;;;1.52;1.40;;;;;;;31.67;36.61;100441.67;1757919;81;20888;-76
2021/06/14 06:19:37;;;;;;;3.40;1.57;;;;;;;31.75;36.46;100439.94;1757873;81;20928;-77
2021/06/14 06:22:04;;;;;;;1.87;1.70;;;;;;;31.86;36.62;100443.71;1757887;81;20943;-77
2021/06/14 06:24:31;;;;;;;2.77;1.35;;;;;;;32.00;35.92;100447.88;1758194;81;21501;-76
2021/06/14 06:27:00;;;;;;;2.00;1.90;;;;;;;32.12;36.55;100451.38;1757981;80;21126;-76
2021/06/14 06:29:27;;;;;;;4.12;1.70;;;;;;;32.29;35.73;100454.72;1757869;81;20868;-76
2021/06/14 06:31:54;;;;;;;4.62;2.15;;;;;;;32.30;35.65;100449.03;1757849;80;20900;-77
2021/06/14 06:34:22;;;;;;;3.60;2.02;;;;;;;32.35;36.04;100453.73;1758211;80;20920;-76
2021/06/14 06:36:49;;;;;;;2.85;1.82;;;;;;;32.43;35.90;100455.54;1757915;81;21591;-78
2021/06/14 06:39:16;;;;;;;2.52;1.75;;;;;;;32.50;36.26;100455.40;1758009;81;21022;-71
2021/06/14 06:41:43;;;;;;;5.22;2.05;;;;;;;32.70;36.78;100450.11;1757799;81;20864;-72
2021/06/14 06:44:10;;;;;;;4.85;2.22;;;;;;;32.92;36.43;100452.96;1758294;80;21034;-71
2021/06/14 06:46:38;;;;;;;2.70;1.75;;;;;;;33.07;35.83;100457.87;1757850;81;21486;-71
2021/06/14 06:49:05;;;;;;;1.77;1.62;;;;;;;33.10;35.82;100464.17;1758135;81;20943;-72
2021/06/14 06:51:32;;;;;;;4.45;2.47;;;;;;;33.13;35.55;100462.31;1758100;81;21128;-70
2021/06/14 06:54:11;;;;;;;1.60;1.50;;;;;;;33.22;35.40;100474.45;1758053;81;20881;-71
2021/06/14 06:56:42;;;;;;;2.87;1.90;;;;;;;33.22;35.26;100470.38;1758011;80;20971;-71
2021/06/14 06:59:11;;;;;;;4.60;2.30;;;;;;;33.30;35.89;100471.30;1758263;81;20987;-71
2021/06/14 07:01:38;;;;;;;4.85;1.98;;;;;;;33.44;35.63;100465.03;1757998;81;20865;-70
2021/06/14 07:04:06;;;;;;;6.50;2.80;;;;;;;33.60;36.18;100482.44;1757863;81;21470;-71
2021/06/14 07:06:33;;;;;;;3.47;2.27;;;;;;;33.69;35.89;100475.50;1757894;80;20917;-69
2021/06/14 07:09:00;;;;;;;4.65;1.92;;;;;;;33.79;35.45;100472.09;1757959;80;20896;-71
2021/06/14 07:11:28;;;;;;;2.10;1.50;;;;;;;33.95;34.96;100476.70;1757817;81;20939;-71
2021/06/14 07:13:55;;;;;;;3.58;1.80;;;;;;;34.08;34.84;100478.20;1758136;81;20837;-70
2021/06/14 07:16:22;;;;;;;4.22;2.45;;;;;;;34.14;33.97;100493.58;1757944;81;21549;-70
2021/06/14 07:18:51;;;;;;;2.95;2.62;;;;;;;33.97;34.34;100485.44;1756882;81;20979;-70
2021/06/14 07:21:18;;;;;;;2.17;1.55;;;;;;;33.89;34.61;100489.13;1744606;81;20889;-70
2021/06/14 07:23:45;;;;;;;6.45;3.05;;;;;;;33.89;34.66;100486.41;1744469;82;20949;-71
2021/06/14 07:26:12;;;;;;;5.33;1.57;;;;;;;33.96;35.36;100487.86;1744637;81;20937;-71
2021/06/14 07:28:39;;;;;;;2.85;1.98;;;;;;;34.16;34.12;100494.14;1744454;82;21034;-70
2021/06/14 07:31:06;;;;;;;2.60;1.50;;;;;;;34.32;33.81;100493.80;1744535;81;20918;-71
2021/06/14 07:33:35;;;;;;;4.97;1.90;;;;;;;34.40;33.47;100492.01;1744636;82;20889;-71
2021/06/14 07:36:04;;;;;;;4.58;3.50;;;;;;;34.53;33.01;100498.98;1744442;82;20925;-71
2021/06/14 07:38:31;;;;;;;4.47;1.98;;;;;;;34.69;33.06;100500.00;1744604;82;20882;-74
2021/06/14 07:40:58;;;;;;;1.65;1.45;;;;;;;34.79;33.23;100514.27;1744511;81;21132;-71
2021/06/14 07:43:25;;;;;;;3.00;1.77;;;;;;;34.82;33.17;100505.59;1744458;82;20865;-84
2021/06/14 07:45:53;;;;;;;6.08;3.15;;;;;;;34.89;33.14;100507.58;1744647;82;21550;-78
2021/06/14 07:48:21;;;;;;;4.35;1.98;;;;;;;34.96;32.83;100507.38;1744621;82;20964;-81
2021/06/14 07:50:48;;;;;;;2.25;1.95;;;;;;;34.87;33.75;100507.01;1744458;81;20858;-82
2021/06/14 07:53:15;;;;;;;4.00;2.12;;;;;;;34.92;34.49;100509.78;1744704;81;21131;-83
2021/06/14 07:55:42;;;;;;;1.75;1.60;;;;;;;34.98;33.33;100504.67;1744797;82;20964;-81
2021/06/14 07:58:09;;;;;;;2.17;1.50;;;;;;;35.04;33.33;100502.28;1744633;82;20972;-76
2021/06/14 08:00:37;;;;;;;2.83;1.57;;;;;;;35.04;32.51;100512.34;1744908;82;20936;-85
2021/06/14 08:03:05;;;;;;;1.35;1.25;;;;;;;34.86;32.87;100510.28;1744664;81;20940;-81
2021/06/14 08:05:32;;;;;;;3.65;1.42;;;;;;;34.66;33.00;100512.23;1745135;82;21107;-75
2021/06/14 08:07:59;;;;;;;2.55;1.50;;;;;;;34.46;34.60;100503.26;1744794;82;21261;-80
2021/06/14 08:10:27;;;;;;;4.22;1.90;;;;;;;34.42;33.42;100510.28;1744771;81;20841;-78
2021/06/14 08:12:54;;;;;;;2.17;1.40;;;;;;;34.44;34.78;100507.28;1745102;80;20865;-75
2021/06/14 08:15:26;;;;;;;3.25;1.50;;;;;;;34.54;33.58;100511.50;1744679;80;21480;-84
2021/06/14 08:17:58;;;;;;;3.50;1.87;;;;;;;34.38;33.33;100513.77;1744905;81;21155;-76
2021/06/14 08:20:32;;;;;;;3.25;2.00;;;;;;;34.28;33.52;100516.34;1744679;81;20925;-78
2021/06/14 08:25:40;;;;;;;3.55;2.37;;;;;;;34.11;33.73;100515.05;1709012;82;20896;-80
2021/06/14 08:28:06;;;;;;;7.80;2.12;;;;;;;34.20;34.40;100527.96;1708692;83;20993;-82
2021/06/14 08:30:34;;;;;;;2.45;2.25;;;;;;;34.29;34.60;100525.63;1707534;84;21318;-71
2021/06/14 08:33:01;;;;;;;2.75;1.80;;;;;;;34.26;34.49;100532.41;1708667;82;20987;-73
2021/06/14 08:35:29;;;;;;;2.45;1.65;;;;;;;34.15;34.61;100529.27;1708752;84;21310;-72
2021/06/14 08:37:56;;;;;;;3.77;1.98;;;;;;;34.07;35.17;100536.45;1708667;84;20892;-73
2021/06/14 08:40:29;;;;;;;4.20;1.60;;;;;;;34.15;34.96;100531.14;1708669;82;21101;-76
2021/06/14 08:43:03;;;;;;;2.70;2.27;;;;;;;34.20;35.12;100542.94;1708823;84;21123;-74
2021/06/14 08:45:31;;;;;;;2.47;1.75;;;;;;;34.24;34.79;100540.52;1708610;82;20896;-75
2021/06/14 08:48:00;;;;;;;4.17;2.10;;;;;;;34.01;34.63;100553.23;1709210;82;20875;-75
2021/06/14 08:50:27;;;;;;;4.10;2.15;;;;;;;33.85;34.93;100558.98;1744880;80;21404;-74
2021/06/14 08:52:54;;;;;;;4.05;3.08;;;;;;;33.76;35.32;100556.39;1744955;82;20924;-74
2021/06/14 08:55:21;;;;;;;5.08;2.45;;;;;;;33.82;35.05;100558.13;1744560;81;21778;-74
2021/06/14 08:57:50;;;;;;;4.17;2.02;;;;;;;33.74;35.10;100561.25;1734015;82;21359;-75
2021/06/14 09:00:23;;;;;;;2.02;1.82;;;;;;;33.81;35.71;100559.73;1744313;82;20826;-74
2021/06/14 09:02:51;;;;;;;5.28;1.98;;;;;;;33.98;35.93;100565.98;1744811;82;20917;-76
2021/06/14 09:05:20;;;;;;;4.17;2.37;;;;;;;34.05;35.16;100570.72;1744469;81;20888;-75
2021/06/14 09:07:51;;;;;;;2.42;2.22;;;;;;;33.97;34.44;100560.78;1744713;82;21052;-75
2021/06/14 09:10:36;;;;;;;2.72;1.90;;;;;;;33.82;35.14;100555.41;1744474;80;21059;-73
2021/06/14 09:13:21;;;;;;;4.58;1.65;;;;;;;33.77;35.39;100553.13;1744481;80;20933;-74
2021/06/14 09:15:53;;;;;;;4.47;2.47;;;;;;;33.70;35.27;100561.45;1744549;82;21378;-73
2021/06/14 09:18:26;;;;;;;2.90;2.33;;;;;;;33.83;35.37;100556.23;1745276;81;20935;-75
2021/06/14 09:21:02;;;;;;;;;;;;;;;34.02;34.80;100556.26;1757655;81;21148;-74
2021/06/14 09:23:50;;;;;;;2.47;2.17;;;;;;;33.96;34.49;100549.08;1759978;81;20381;-75
2021/06/14 09:26:34;;;;;;;2.85;1.98;;;;;;;33.92;34.65;100548.47;1759608;81;20848;-74
2021/06/14 09:29:07;;;;;;;1.82;1.65;;;;;;;34.09;34.85;100549.83;1760394;80;20889;-71
2021/06/14 09:31:46;;;;;;;1.77;1.43;;;;;;;34.24;33.54;100552.25;1758026;81;20976;-73
2021/06/14 09:35:19;;;;;;;2.22;1.20;;;;;;;34.17;32.68;100554.84;1798689;79;22635;-74
2021/06/14 09:38:01;;;;;;;2.00;1.50;;;;;;;34.05;33.69;100557.11;1758399;81;20912;-73
2021/06/14 09:40:50;;;;;;;1.82;1.57;;;;;;;34.17;35.02;100562.47;1758457;80;21134;-73
2021/06/14 09:43:32;;;;;;;2.10;1.20;;;;;;;34.21;33.82;100560.09;1757635;80;20938;-73
2021/06/14 09:46:01;;;;;;;3.10;1.72;;;;;;;34.10;33.21;100557.72;1758703;80;21490;-76
2021/06/14 09:48:29;;;;;;;2.05;1.50;;;;;;;33.82;34.11;100558.67;1758205;81;21460;-73
2021/06/14 09:50:59;;;;;;;5.85;2.00;;;;;;;33.94;34.34;100557.22;1758598;80;20912;-74
2021/06/14 09:53:34;;;;;;;2.35;2.00;;;;;;;34.06;34.09;100553.33;1758387;81;21190;-75
2021/06/14 09:55:56;;;;;;;6.37;1.45;;;;;;;34.23;33.65;100557.94;1757907;81;20907;-75
2021/06/14 09:58:26;;;;;;;6.78;1.45;;;;;;;34.15;33.37;100552.41;1758359;81;20923;-75
2021/06/14 10:01:02;;;;;;;2.45;1.17;;;;;;;34.23;33.58;100553.31;1758458;81;20900;-74
2021/06/14 10:03:45;;;;;;;2.85;1.20;;;;;;;34.33;33.27;100549.08;1758356;81;21003;-73
2021/06/14 10:06:13;;;;;;;;;;;;;;;34.39;32.03;100549.44;1761211;81;21104;-72
2021/06/14 10:08:47;;;;;;;2.30;1.15;;;;;;;34.25;32.31;100544.36;1758252;81;20369;-72
2021/06/14 10:11:19;;;;;;;2.50;1.40;;;;;;;34.16;32.79;100552.67;1758744;81;20853;-73
2021/06/14 10:13:48;;;;;;;2.50;1.12;;;;;;;34.16;32.62;100547.77;1758502;81;20860;-77
2021/06/14 10:16:23;;;;;;;2.52;1.52;;;;;;;34.28;32.84;100545.75;1758610;80;20884;-75
2021/06/14 10:18:56;;;;;;;1.40;1.17;;;;;;;34.35;32.42;100542.84;1758228;80;21168;-75
2021/06/14 10:21:32;;;;;;;2.92;1.40;;;;;;;34.46;33.35;100535.09;1758542;81;21007;-74
2021/06/14 10:24:01;;;;;;;1.32;1.22;;;;;;;34.61;32.31;100534.47;1758304;81;20967;-74
2021/06/14 10:26:29;;;;;;;5.70;1.35;;;;;;;34.38;31.79;100535.00;1758668;81;20987;-75
2021/06/14 10:28:56;;;;;;;1.27;1.07;;;;;;;34.30;31.01;100542.23;1758456;81;20924;-74
2021/06/14 10:31:23;;;;;;;2.85;1.25;;;;;;;34.00;30.96;100549.42;1758176;80;21144;-76
2021/06/14 10:33:52;;;;;;;2.87;1.25;;;;;;;33.62;31.76;100546.92;1754237;80;20940;-75
2021/06/14 10:36:25;;;;;;;4.03;2.00;;;;;;;33.26;32.01;100548.97;1745120;81;20932;-74
2021/06/14 10:38:53;;;;;;;3.47;0.93;;;;;;;33.17;32.77;100543.65;1745210;82;20905;-75
2021/06/14 10:41:21;;;;;;;2.02;1.92;;;;;;;33.11;32.52;100552.80;1745110;82;20984;-75
2021/06/14 10:43:49;;;;;;;1.75;1.60;;;;;;;33.04;32.26;100548.30;1745213;82;21462;-75
2021/06/14 10:46:18;;;;;;;2.22;1.72;;;;;;;33.15;32.57;100552.06;1744824;80;20920;-76
2021/06/14 10:48:46;;;;;;;1.32;1.10;;;;;;;33.45;33.07;100547.69;1744617;81;20896;-74
2021/06/14 10:51:20;;;;;;;3.15;1.37;;;;;;;33.78;33.00;100540.65;1744873;82;21384;-74
2021/06/14 10:53:51;;;;;;;4.83;1.52;;;;;;;34.11;31.17;100543.62;1744582;81;21015;-75
2021/06/14 10:56:16;;;;;;;2.60;1.60;;;;;;;34.23;31.49;100545.14;1744548;81;21166;-74
2021/06/14 10:58:56;;;;;;;2.05;1.35;;;;;;;34.31;30.54;100538.45;1744694;82;20849;-77
2021/06/14 11:01:37;;;;;;;2.65;1.00;;;;;;;34.42;31.88;100535.34;1744327;80;20877;-74
2021/06/14 11:04:05;;;;;;;2.08;0.90;;;;;;;34.53;32.14;100531.66;1744625;82;20866;-73
2021/06/14 11:06:37;;;;;;;2.20;1.17;;;;;;;34.33;30.87;100535.46;1744946;81;20890;-72
2021/06/14 11:09:12;;;;;;;0.82;0.80;;;;;;;34.28;30.02;100535.41;1743649;81;21359;-73
2021/06/14 11:11:58;;;;;;;2.37;0.90;;;;;;;33.97;30.82;100530.85;1745038;81;20932;-73
2021/06/14 11:14:43;;;;;;;1.57;1.10;;;;;;;33.86;30.58;100525.79;1744367;81;20885;-75
2021/06/14 11:17:20;;;;;;;1.75;1.07;;;;;;;33.42;31.01;100525.63;1744772;82;20901;-74
2021/06/14 11:19:51;;;;;;;4.33;1.45;;;;;;;32.97;31.58;100519.09;1744554;81;20924;-73
2021/06/14 11:22:19;;;;;;;2.37;1.32;;;;;;;32.46;32.57;100519.92;1746111;81;21120;-73
2021/06/14 11:24:46;;;;;;;1.77;1.22;;;;;;;31.96;33.20;100521.26;1744474;82;21395;-75
2021/06/14 11:27:13;;;;;;;1.95;1.00;;;;;;;31.73;33.65;100521.55;1744818;82;20866;-75
2021/06/14 11:29:49;;;;;;;3.02;1.40;;;;;;;31.65;34.65;100525.95;1744492;82;20913;-73
2021/06/14 11:32:20;;;;;;;4.42;0.95;;;;;;;31.63;33.98;100520.47;1744873;81;20885;-73
2021/06/14 11:34:53;;;;;;;5.75;1.05;;;;;;;31.50;33.35;100514.73;1750992;81;21756;-73